Time;durP1;ratioP1;P1;durP2;ratioP2;P2;SDS_P1;SDS_P2;PMS_P1;PMS_P2;Temp;Humidity;BMP_temperature;BMP_pressure;BME280_temperature;BME280_humidity;BME280_pressure;Samples;Min_cycle;Max_cycle;Signal;HPM_P1;HPM_P2
2022/09/22 00:03:05;;;;;;;8.80;5.38;;;;;;;;;;10240093;28;20029;-77
2022/09/22 00:08:06;;;;;;;8.20;5.97;;;;;;;;;;10249147;28;20046;-75
2022/09/22 00:13:06;;;;;;;8.50;6.43;;;;;;;;;;10265034;28;20027;-75
2022/09/22 00:18:06;;;;;;;9.13;5.70;;;;;;;;;;10283010;28;20069;-74
2022/09/22 00:23:06;;;;;;;9.93;6.20;;;;;;;;;;10264989;28;20539;-73
2022/09/22 00:28:07;;;;;;;8.20;5.57;;;;;;;;;;10265368;28;20019;-80
2022/09/22 00:33:08;;;;;;;9.05;6.50;;;;;;;;;;10265057;28;20026;-77
2022/09/22 00:38:08;;;;;;;11.70;6.10;;;;;;;;;;10265503;28;20062;-72
2022/09/22 00:43:29;;;;;;;9.88;5.80;;;;;;;;;;10265023;28;20110;-79
2022/09/22 00:48:32;;;;;;;9.05;5.85;;;;;;;;;;10259702;28;20018;-77
2022/09/22 00:53:33;;;;;;;6.07;4.53;;;;;;;;;;10281834;28;20499;-75
2022/09/22 00:58:35;;;;;;;9.30;5.78;;;;;;;;;;10264612;28;20037;-79
2022/09/22 01:03:38;;;;;;;7.60;5.30;;;;;;;;;;10264035;28;20111;-76
2022/09/22 01:08:39;;;;;;;8.65;5.75;;;;;;;;;;10240306;28;20050;-76
2022/09/22 01:13:50;;;;;;;8.63;5.35;;;;;;;;;;10241960;28;20521;-78
2022/09/22 01:19:09;;;;;;;7.07;4.90;;;;;;;;;;10237381;28;20421;-77
2022/09/22 01:24:09;;;;;;;8.32;4.38;;;;;;;;;;10240523;28;20011;-76
2022/09/22 01:29:25;;;;;;;11.82;9.00;;;;;;;;;;10248245;28;20023;-75
2022/09/22 01:34:34;;;;;;;5.82;4.63;;;;;;;;;;10263577;28;20050;-77
2022/09/22 01:39:40;;;;;;;7.60;5.53;;;;;;;;;;10246234;28;20022;-81
2022/09/22 01:44:56;;;;;;;8.15;5.00;;;;;;;;;;10246389;28;20031;-75
2022/09/22 01:50:04;;;;;;;9.20;6.22;;;;;;;;;;10246306;28;20038;-75
2022/09/22 01:55:26;;;;;;;10.57;6.47;;;;;;;;;;10247204;28;20150;-74
2022/09/22 02:00:26;;;;;;;11.80;5.68;;;;;;;;;;10261537;28;20019;-78
2022/09/22 02:05:31;;;;;;;9.38;5.82;;;;;;;;;;10257455;28;20046;-73
2022/09/22 02:10:34;;;;;;;9.93;6.35;;;;;;;;;;10270505;28;20097;-73
2022/09/22 02:20:53;;;;;;;;;;;;;;;;;;10287948;28;20018;-78
2022/09/22 02:25:53;;;;;;;11.13;6.57;;;;;;;;;;10269950;28;20323;-76
2022/09/22 02:30:55;;;;;;;11.45;5.85;;;;;;;;;;10269130;28;20118;-77
2022/09/22 02:36:11;;;;;;;12.98;6.72;;;;;;;;;;10269476;28;20503;-73
2022/09/22 02:41:23;;;;;;;13.98;11.52;;;;;;;;;;10284266;28;20026;-74
2022/09/22 02:46:26;;;;;;;15.57;14.07;;;;;;;;;;10268188;28;20034;-78
2022/09/22 02:51:28;;;;;;;13.93;7.30;;;;;;;;;;10284926;28;20030;-73
2022/09/22 02:56:28;;;;;;;10.93;6.85;;;;;;;;;;10286935;28;20477;-73
2022/09/22 03:01:28;;;;;;;13.83;8.30;;;;;;;;;;10268345;28;20027;-75
2022/09/22 03:06:28;;;;;;;18.23;7.80;;;;;;;;;;10268296;28;20051;-74
2022/09/22 03:11:29;;;;;;;10.40;6.97;;;;;;;;;;10267833;28;20035;-73
2022/09/22 03:16:29;;;;;;;9.55;6.65;;;;;;;;;;10268681;28;20512;-76
2022/09/22 03:21:29;;;;;;;11.80;7.53;;;;;;;;;;10267111;28;20512;-75
2022/09/22 03:26:29;;;;;;;11.80;7.78;;;;;;;;;;10267631;28;20497;-72
2022/09/22 03:31:30;;;;;;;14.63;8.68;;;;;;;;;;10267174;28;20026;-77
2022/09/22 03:36:30;;;;;;;12.48;8.23;;;;;;;;;;10267292;28;20027;-77
2022/09/22 03:41:30;;;;;;;12.75;7.82;;;;;;;;;;10267314;28;20022;-78
2022/09/22 03:46:31;;;;;;;13.05;8.43;;;;;;;;;;10250008;28;20023;-75
2022/09/22 03:51:33;;;;;;;12.90;8.25;;;;;;;;;;10283798;28;20117;-80
2022/09/22 03:56:35;;;;;;;13.48;7.97;;;;;;;;;;10282557;28;20031;-80
2022/09/22 04:01:35;;;;;;;195.80;183.32;;;;;;;;;;10265983;28;20492;-79
2022/09/22 04:06:36;;;;;;;10.43;7.77;;;;;;;;;;10266522;28;20141;-76
2022/09/22 04:11:36;;;;;;;13.40;7.82;;;;;;;;;;10265556;28;20269;-73
2022/09/22 04:16:41;;;;;;;13.23;9.55;;;;;;;;;;10259553;28;20034;-79
2022/09/22 04:21:44;;;;;;;11.23;6.80;;;;;;;;;;10257123;28;20071;-74
2022/09/22 04:26:44;;;;;;;14.27;7.78;;;;;;;;;;10270077;28;20519;-72
2022/09/22 04:31:44;;;;;;;13.93;8.23;;;;;;;;;;10225379;28;20022;-78
2022/09/22 04:36:44;;;;;;;13.37;8.67;;;;;;;;;;10246383;28;20015;-78
2022/09/22 04:41:45;;;;;;;11.15;7.35;;;;;;;;;;10242533;28;20019;-81
2022/09/22 04:46:45;;;;;;;14.90;9.68;;;;;;;;;;10261064;28;20019;-75
2022/09/22 04:51:45;;;;;;;15.48;7.38;;;;;;;;;;10247267;28;20023;-76
2022/09/22 04:56:45;;;;;;;16.25;8.52;;;;;;;;;;10249082;28;20509;-72
2022/09/22 05:01:46;;;;;;;11.73;8.18;;;;;;;;;;10231222;28;20449;-73
2022/09/22 05:06:46;;;;;;;14.85;11.30;;;;;;;;;;10260921;28;20051;-73
2022/09/22 05:11:49;;;;;;;14.43;8.15;;;;;;;;;;10245739;28;20034;-73
2022/09/22 05:16:49;;;;;;;13.45;8.50;;;;;;;;;;10227160;28;20019;-76
2022/09/22 05:21:50;;;;;;;14.55;8.43;;;;;;;;;;10234372;28;20732;-76
2022/09/22 05:26:50;;;;;;;12.57;7.55;;;;;;;;;;10251020;28;20015;-76
2022/09/22 05:31:50;;;;;;;17.10;8.65;;;;;;;;;;10249849;28;20228;-77
2022/09/22 05:36:50;;;;;;;12.93;8.02;;;;;;;;;;10248917;28;20022;-73
2022/09/22 05:41:51;;;;;;;18.90;9.57;;;;;;;;;;10274111;28;20023;-74
2022/09/22 05:46:51;;;;;;;10.18;7.75;;;;;;;;;;10262589;28;20031;-74
2022/09/22 05:51:54;;;;;;;16.38;8.52;;;;;;;;;;10263587;28;20061;-76
2022/09/22 05:56:54;;;;;;;15.27;7.38;;;;;;;;;;10263122;28;20659;-79
2022/09/22 06:01:54;;;;;;;12.87;7.60;;;;;;;;;;10256868;28;20037;-73
2022/09/22 06:06:55;;;;;;;217.40;198.82;;;;;;;;;;10253327;28;20153;-76
2022/09/22 06:11:55;;;;;;;11.43;6.50;;;;;;;;;;10249050;28;20034;-73
2022/09/22 06:16:57;;;;;;;9.20;6.50;;;;;;;;;;10258987;28;20031;-73
2022/09/22 06:21:59;;;;;;;9.75;6.60;;;;;;;;;;10266160;28;20022;-76
2022/09/22 06:26:59;;;;;;;9.70;6.85;;;;;;;;;;10264786;28;20481;-74
2022/09/22 06:32:00;;;;;;;12.27;7.22;;;;;;;;;;10283850;28;20143;-74
2022/09/22 06:37:01;;;;;;;9.18;5.65;;;;;;;;;;10282427;28;20039;-74
2022/09/22 06:42:01;;;;;;;8.90;5.47;;;;;;;;;;10265503;28;20019;-73
2022/09/22 06:47:07;;;;;;;10.18;5.60;;;;;;;;;;10266100;28;20286;-80
2022/09/22 06:52:13;;;;;;;7.95;4.65;;;;;;;;;;10281856;28;20027;-75
2022/09/22 06:57:15;;;;;;;8.77;5.60;;;;;;;;;;10280976;28;20027;-74
2022/09/22 07:02:15;;;;;;;14.20;5.10;;;;;;;;;;10284618;28;20078;-76
2022/09/22 07:07:16;;;;;;;7.35;5.07;;;;;;;;;;10240459;29;20062;-74
2022/09/22 07:12:16;;;;;;;6.10;4.43;;;;;;;;;;10237404;28;20027;-77
2022/09/22 07:17:17;;;;;;;8.57;4.95;;;;;;;;;;10239223;28;20508;-73
2022/09/22 07:22:17;;;;;;;8.93;4.45;;;;;;;;;;10238233;28;20473;-82
2022/09/22 07:27:24;;;;;;;6.53;4.23;;;;;;;;;;10234679;29;20023;-74
2022/09/22 07:32:25;;;;;;;4.63;3.97;;;;;;;;;;10239889;28;20027;-79
2022/09/22 07:37:28;;;;;;;8.80;3.65;;;;;;;;;;10240075;28;20031;-76
2022/09/22 07:42:29;;;;;;;4.78;3.88;;;;;;;;;;10241370;28;20057;-74
2022/09/22 07:52:52;;;;;;;11.88;4.00;;;;;;;;;;10240993;29;20110;-74
2022/09/22 07:57:56;;;;;;;4.18;3.35;;;;;;;;;;10222962;29;20114;-76
2022/09/22 08:02:56;;;;;;;4.32;3.30;;;;;;;;;;10233122;28;20030;-77
2022/09/22 08:07:57;;;;;;;6.43;3.93;;;;;;;;;;10239751;29;20070;-74
2022/09/22 08:12:59;;;;;;;6.45;3.60;;;;;;;;;;10239163;28;20453;-79
2022/09/22 08:18:01;;;;;;;8.98;3.95;;;;;;;;;;10238787;29;20414;-74
2022/09/22 08:23:01;;;;;;;3.78;2.53;;;;;;;;;;10237210;28;20034;-73
2022/09/22 08:28:02;;;;;;;4.88;3.55;;;;;;;;;;10234377;29;20045;-74
2022/09/22 08:33:02;;;;;;;4.43;3.08;;;;;;;;;;10238609;28;20027;-76
2022/09/22 08:38:02;;;;;;;6.68;3.28;;;;;;;;;;10232832;28;20035;-74
2022/09/22 08:43:03;;;;;;;3.83;3.05;;;;;;;;;;10237357;28;20023;-74
2022/09/22 08:53:34;;;;;;;4.87;3.33;;;;;;;;;;10239260;28;20031;-80
2022/09/22 08:58:40;;;;;;;3.90;3.08;;;;;;;;;;10233339;29;20035;-74
2022/09/22 09:03:43;;;;;;;6.95;3.42;;;;;;;;;;10235900;28;20023;-74
2022/09/22 09:08:43;;;;;;;4.15;2.75;;;;;;;;;;10274867;28;20104;-78
2022/09/22 09:13:54;;;;;;;7.93;2.97;;;;;;;;;;10260795;28;20023;-76
2022/09/22 09:19:15;;;;;;;6.75;3.03;;;;;;;;;;10260206;28;20077;-81
2022/09/22 09:24:35;;;;;;;3.70;2.03;;;;;;;;;;10257671;28;20037;-77
2022/09/22 09:29:43;;;;;;;5.63;2.38;;;;;;;;;;10256628;28;20019;-77
2022/09/22 09:34:45;;;;;;;3.15;1.88;;;;;;;;;;10277541;28;20023;-77
2022/09/22 09:39:46;;;;;;;4.22;1.67;;;;;;;;;;10254725;28;20027;-78
2022/09/22 09:44:52;;;;;;;2.03;1.60;;;;;;;;;;10261128;28;20045;-74
2022/09/22 09:49:53;;;;;;;1.60;1.10;;;;;;;;;;10268727;28;20353;-78
2022/09/22 09:55:14;;;;;;;1.65;1.27;;;;;;;;;;10283403;28;20022;-79
2022/09/22 10:00:30;;;;;;;2.38;0.90;;;;;;;;;;10265772;28;20051;-74
2022/09/22 10:05:31;;;;;;;2.53;1.45;;;;;;;;;;10266512;28;20512;-76
2022/09/22 10:10:34;;;;;;;1.40;0.90;;;;;;;;;;10261062;28;20038;-76
2022/09/22 10:15:35;;;;;;;1.08;0.85;;;;;;;;;;10268200;28;20019;-74
2022/09/22 10:20:35;;;;;;;0.75;0.55;;;;;;;;;;10266247;28;20059;-76
2022/09/22 10:25:35;;;;;;;0.60;0.60;;;;;;;;;;10265613;28;20110;-74
2022/09/22 10:30:36;;;;;;;2.20;0.60;;;;;;;;;;10261658;28;20023;-77
2022/09/22 10:35:37;;;;;;;1.73;1.15;;;;;;;;;;10259378;28;20081;-77
2022/09/22 10:40:38;;;;;;;2.35;1.10;;;;;;;;;;10260989;28;20038;-78
2022/09/22 10:45:48;;;;;;;2.38;1.10;;;;;;;;;;10278938;28;20508;-74
2022/09/22 10:50:48;;;;;;;2.05;1.00;;;;;;;;;;10262466;28;20109;-83
2022/09/22 10:55:52;;;;;;;1.70;1.30;;;;;;;;;;10260925;28;20138;-74
2022/09/22 11:00:58;;;;;;;1.30;0.80;;;;;;;;;;10261336;28;20114;-75
2022/09/22 11:12:15;;;;;;;1.38;0.98;;;;;;;;;;10273323;28;20493;-74
2022/09/22 11:17:15;;;;;;;1.20;1.00;;;;;;;;;;10260311;28;20185;-76
2022/09/22 11:22:30;;;;;;;6.57;1.17;;;;;;;;;;10259199;28;20370;-78
2022/09/22 11:27:35;;;;;;;2.47;1.00;;;;;;;;;;10264496;28;20027;-78
2022/09/22 11:32:41;;;;;;;4.90;1.52;;;;;;;;;;10265017;28;20049;-79
2022/09/22 11:37:41;;;;;;;3.15;0.80;;;;;;;;;;10284015;28;20378;-79
2022/09/22 11:42:48;;;;;;;1.40;1.13;;;;;;;;;;10265088;28;20027;-77
2022/09/22 11:47:48;;;;;;;2.95;1.55;;;;;;;;;;10264733;28;20019;-78
2022/09/22 11:53:13;;;;;;;3.58;1.33;;;;;;;;;;10266152;28;20026;-76
2022/09/22 11:58:18;;;;;;;2.33;1.27;;;;;;;;;;10265402;28;20023;-76
2022/09/22 12:03:22;;;;;;;3.72;1.80;;;;;;;;;;10264198;28;20025;-74
2022/09/22 12:08:24;;;;;;;2.88;1.38;;;;;;;;;;10278865;28;20068;-73
2022/09/22 12:13:26;;;;;;;4.10;1.60;;;;;;;;;;10263909;28;20146;-74
2022/09/22 12:18:27;;;;;;;5.43;1.98;;;;;;;;;;10263304;28;20018;-74
2022/09/22 12:23:38;;;;;;;1.38;1.05;;;;;;;;;;10265123;28;20396;-74
2022/09/22 12:28:40;;;;;;;5.95;1.77;;;;;;;;;;10264444;28;20022;-76
2022/09/22 12:33:47;;;;;;;2.53;1.52;;;;;;;;;;10264584;28;20030;-77
2022/09/22 12:38:48;;;;;;;1.45;1.05;;;;;;;;;;10262864;28;20033;-75
2022/09/22 12:43:49;;;;;;;2.42;1.25;;;;;;;;;;10264789;28;20018;-79
2022/09/22 12:48:49;;;;;;;1.58;1.20;;;;;;;;;;10263012;28;20031;-73
2022/09/22 12:53:50;;;;;;;6.25;1.40;;;;;;;;;;10248022;28;20392;-74
2022/09/22 12:58:51;;;;;;;3.05;1.10;;;;;;;;;;10263924;28;20271;-77
2022/09/22 13:03:51;;;;;;;1.85;1.50;;;;;;;;;;10263827;28;20081;-74
2022/09/22 13:08:51;;;;;;;1.73;1.00;;;;;;;;;;10239542;28;20146;-74
2022/09/22 13:13:51;;;;;;;2.17;1.10;;;;;;;;;;10239468;28;20520;-74
2022/09/22 13:18:52;;;;;;;1.65;0.80;;;;;;;;;;10239460;28;20034;-80
2022/09/22 13:23:54;;;;;;;2.85;1.13;;;;;;;;;;10249499;28;20015;-80
2022/09/22 13:29:18;;;;;;;1.40;1.20;;;;;;;;;;10250711;28;20027;-81
2022/09/22 13:34:32;;;;;;;1.05;0.95;;;;;;;;;;10247401;28;20031;-74
2022/09/22 13:39:41;;;;;;;1.10;1.00;;;;;;;;;;10230175;28;20499;-76
2022/09/22 13:44:42;;;;;;;1.85;1.17;;;;;;;;;;10247008;28;20718;-78
2022/09/22 13:49:50;;;;;;;5.03;1.38;;;;;;;;;;10231054;28;20520;-74
2022/09/22 13:54:55;;;;;;;2.22;1.80;;;;;;;;;;10246149;28;20473;-74
2022/09/22 13:59:56;;;;;;;10.15;2.08;;;;;;;;;;10246645;28;20039;-78
2022/09/22 14:05:01;;;;;;;9.73;8.77;;;;;;;;;;10253903;28;20051;-74
2022/09/22 14:10:02;;;;;;;2.30;1.20;;;;;;;;;;10269909;28;20023;-74
2022/09/22 14:15:21;;;;;;;3.47;2.97;;;;;;;;;;10281745;28;20049;-74
2022/09/22 14:20:21;;;;;;;3.22;1.13;;;;;;;;;;10264713;28;20031;-77
2022/09/22 14:25:22;;;;;;;4.25;1.98;;;;;;;;;;10273740;28;20050;-74
2022/09/22 14:30:27;;;;;;;4.25;1.30;;;;;;;;;;10265496;28;20022;-74
2022/09/22 14:35:28;;;;;;;4.93;1.45;;;;;;;;;;10280741;28;20122;-74
2022/09/22 14:40:28;;;;;;;2.35;1.75;;;;;;;;;;10266026;28;20030;-77
2022/09/22 14:45:30;;;;;;;5.00;2.20;;;;;;;;;;10281262;28;20532;-78
2022/09/22 14:50:32;;;;;;;2.58;2.35;;;;;;;;;;10278620;28;20093;-77
2022/09/22 14:55:34;;;;;;;2.00;1.70;;;;;;;;;;10261244;28;20027;-78
2022/09/22 15:05:54;;;;;;;6.57;1.50;;;;;;;;;;10279337;28;20458;-76
2022/09/22 15:10:55;;;;;;;8.88;5.25;;;;;;;;;;10266627;28;20031;-74
2022/09/22 15:15:56;;;;;;;3.90;2.20;;;;;;;;;;10259876;28;20034;-81
2022/09/22 15:20:58;;;;;;;5.82;3.75;;;;;;;;;;10254847;28;20030;-77
2022/09/22 15:26:03;;;;;;;10.20;3.58;;;;;;;;;;10263018;28;20121;-78
2022/09/22 15:31:04;;;;;;;6.90;3.03;;;;;;;;;;10273906;28;20173;-76
2022/09/22 15:36:12;;;;;;;4.72;1.95;;;;;;;;;;10254468;28;20551;-73
2022/09/22 15:41:14;;;;;;;3.67;2.00;;;;;;;;;;10262416;28;20027;-73
2022/09/22 15:46:27;;;;;;;3.00;2.17;;;;;;;;;;10261147;28;20093;-74
2022/09/22 15:51:27;;;;;;;3.88;3.00;;;;;;;;;;10260615;28;20026;-75
2022/09/22 15:56:28;;;;;;;7.33;3.20;;;;;;;;;;10260653;28;20027;-77
2022/09/22 16:01:34;;;;;;;6.15;3.30;;;;;;;;;;10268818;28;20030;-81
2022/09/22 16:06:35;;;;;;;3.80;3.20;;;;;;;;;;10250851;28;20105;-76
2022/09/22 16:11:35;;;;;;;5.45;3.40;;;;;;;;;;10260830;28;20191;-77
2022/09/22 16:16:36;;;;;;;4.20;2.67;;;;;;;;;;10252655;28;20542;-77
2022/09/22 16:21:39;;;;;;;5.60;3.58;;;;;;;;;;10253115;28;20501;-78
2022/09/22 16:26:39;;;;;;;6.55;3.58;;;;;;;;;;10260224;28;20105;-77
2022/09/22 16:31:39;;;;;;;6.30;4.23;;;;;;;;;;10258826;28;20093;-77
2022/09/22 16:36:40;;;;;;;7.43;4.10;;;;;;;;;;10259585;28;20025;-78
2022/09/22 16:41:44;;;;;;;9.00;4.88;;;;;;;;;;10250143;28;20193;-77
2022/09/22 16:46:44;;;;;;;5.80;4.20;;;;;;;;;;10239908;28;20551;-78
2022/09/22 16:51:49;;;;;;;5.20;4.18;;;;;;;;;;10243967;28;20078;-76
2022/09/22 16:56:49;;;;;;;9.43;4.90;;;;;;;;;;10245226;28;20026;-79
2022/09/22 17:01:50;;;;;;;7.68;4.82;;;;;;;;;;10240965;28;20023;-79
2022/09/22 17:06:51;;;;;;;8.07;5.43;;;;;;;;;;10256319;28;20050;-74
2022/09/22 17:11:52;;;;;;;8.80;5.18;;;;;;;;;;10251854;28;20035;-77
2022/09/22 17:16:54;;;;;;;9.40;6.20;;;;;;;;;;10274632;28;20429;-75
2022/09/22 17:21:54;;;;;;;7.35;4.95;;;;;;;;;;10258827;28;20026;-74
2022/09/22 17:26:56;;;;;;;8.43;4.93;;;;;;;;;;10254484;28;20027;-74
2022/09/22 17:32:01;;;;;;;8.23;5.53;;;;;;;;;;10256928;28;20030;-78
2022/09/22 17:37:02;;;;;;;11.32;6.10;;;;;;;;;;10255627;28;20178;-77
2022/09/22 17:42:02;;;;;;;10.77;5.45;;;;;;;;;;10257203;28;20027;-74
2022/09/22 17:57:29;;;;;;;9.15;5.70;;;;;;;;;;10265513;28;20114;-76
2022/09/22 18:02:31;;;;;;;8.52;4.72;;;;;;;;;;10241354;28;20025;-79
2022/09/22 18:07:33;;;;;;;10.02;5.20;;;;;;;;;;10235912;28;20058;-75
2022/09/22 18:12:34;;;;;;;9.18;6.03;;;;;;;;;;10253798;28;20094;-75
2022/09/22 18:17:40;;;;;;;10.30;5.93;;;;;;;;;;10239785;29;20541;-75
2022/09/22 18:22:41;;;;;;;9.07;5.60;;;;;;;;;;10232726;29;20565;-76
2022/09/22 18:27:41;;;;;;;8.45;5.45;;;;;;;;;;10236780;28;20130;-75
2022/09/22 18:32:41;;;;;;;13.90;11.35;;;;;;;;;;10235174;29;20473;-73
2022/09/22 18:37:42;;;;;;;9.55;5.18;;;;;;;;;;10240331;28;20035;-74
2022/09/22 18:42:43;;;;;;;8.60;5.35;;;;;;;;;;10240250;28;20038;-74
2022/09/22 18:47:43;;;;;;;9.13;5.88;;;;;;;;;;10234506;28;20477;-74
2022/09/22 18:52:44;;;;;;;8.93;5.55;;;;;;;;;;10228519;28;20512;-75
2022/09/22 18:57:47;;;;;;;7.72;5.03;;;;;;;;;;10239220;28;20378;-78
2022/09/22 19:02:49;;;;;;;6.30;4.82;;;;;;;;;;10238750;29;20049;-73
2022/09/22 19:07:49;;;;;;;10.80;5.53;;;;;;;;;;10266394;28;20050;-73
2022/09/22 19:12:49;;;;;;;9.02;5.97;;;;;;;;;;10258134;28;20034;-75
2022/09/22 19:17:50;;;;;;;7.32;5.35;;;;;;;;;;10255824;28;20162;-77
2022/09/22 19:22:51;;;;;;;7.18;5.35;;;;;;;;;;10258348;28;20484;-73
2022/09/22 19:27:51;;;;;;;7.80;5.38;;;;;;;;;;10261502;28;20105;-74
2022/09/22 19:32:52;;;;;;;7.85;5.43;;;;;;;;;;10263915;28;20104;-73
2022/09/22 19:37:52;;;;;;;8.45;4.90;;;;;;;;;;10256081;28;20497;-75
2022/09/22 19:42:54;;;;;;;8.03;5.53;;;;;;;;;;10263473;28;20031;-76
2022/09/22 19:47:55;;;;;;;7.13;4.72;;;;;;;;;;10260904;28;20027;-75
2022/09/22 19:52:56;;;;;;;11.23;5.00;;;;;;;;;;10262988;28;20054;-74
2022/09/22 19:57:56;;;;;;;6.60;5.07;;;;;;;;;;10277608;28;20118;-74
2022/09/22 20:03:00;;;;;;;6.53;5.03;;;;;;;;;;10259688;28;20477;-74
2022/09/22 20:08:00;;;;;;;10.65;5.10;;;;;;;;;;10236975;28;20526;-75
2022/09/22 20:14:18;;;;;;;7.32;5.10;;;;;;;;;;10236553;28;20553;-75
2022/09/22 20:18:21;;;;;;;8.98;6.18;;;;;;;;;;10235748;29;20046;-77
2022/09/22 20:23:22;;;;;;;7.88;4.80;;;;;;;;;;10236290;28;20027;-73
2022/09/22 20:28:22;;;;;;;7.22;5.28;;;;;;;;;;10235480;28;20458;-73
2022/09/22 20:33:23;;;;;;;7.90;5.28;;;;;;;;;;10235559;28;20162;-73
2022/09/22 20:38:23;;;;;;;13.50;5.75;;;;;;;;;;10237326;28;20035;-79
2022/09/22 20:43:24;;;;;;;7.63;5.27;;;;;;;;;;10236148;28;20034;-74
2022/09/22 20:48:24;;;;;;;9.35;5.57;;;;;;;;;;10236592;28;20039;-78
2022/09/22 20:53:24;;;;;;;10.25;7.53;;;;;;;;;;10231451;28;20071;-74
2022/09/22 20:58:25;;;;;;;8.13;5.50;;;;;;;;;;10227743;28;20152;-74
2022/09/22 21:03:25;;;;;;;11.18;6.13;;;;;;;;;;10231990;29;20489;-73
2022/09/22 21:13:44;;;;;;;10.40;6.50;;;;;;;;;;10280515;28;20050;-74
2022/09/22 21:18:46;;;;;;;9.10;6.73;;;;;;;;;;10264017;28;20031;-80
2022/09/22 21:23:50;;;;;;;11.65;5.90;;;;;;;;;;10261876;28;20023;-74
2022/09/22 21:28:51;;;;;;;9.27;6.32;;;;;;;;;;10263120;28;20077;-73
2022/09/22 21:33:51;;;;;;;10.55;7.57;;;;;;;;;;10264189;28;20115;-75
2022/09/22 21:38:55;;;;;;;9.70;6.90;;;;;;;;;;10263501;28;20030;-78
2022/09/22 21:43:56;;;;;;;9.00;6.70;;;;;;;;;;10286389;28;20023;-78
2022/09/22 21:49:00;;;;;;;11.05;6.53;;;;;;;;;;10289026;28;20050;-75
2022/09/22 21:54:02;;;;;;;9.88;6.63;;;;;;;;;;10271081;28;20030;-73
2022/09/22 21:59:02;;;;;;;10.07;6.90;;;;;;;;;;10288625;28;20077;-74
2022/09/22 22:04:12;;;;;;;9.50;6.37;;;;;;;;;;10270414;28;20023;-80
2022/09/22 22:09:16;;;;;;;8.77;6.47;;;;;;;;;;10269285;28;20376;-76
2022/09/22 22:14:18;;;;;;;9.10;6.35;;;;;;;;;;10270782;28;20509;-73
2022/09/22 22:19:23;;;;;;;10.95;7.10;;;;;;;;;;10270717;28;20086;-74
2022/09/22 22:24:27;;;;;;;11.18;7.50;;;;;;;;;;10269949;28;20019;-76
2022/09/22 22:29:30;;;;;;;9.13;7.00;;;;;;;;;;10268964;28;20022;-76
2022/09/22 22:34:30;;;;;;;10.07;6.70;;;;;;;;;;10300304;28;20109;-79
2022/09/22 22:39:31;;;;;;;9.00;7.35;;;;;;;;;;10269694;28;20031;-74
2022/09/22 22:44:31;;;;;;;10.80;7.47;;;;;;;;;;10269428;28;20023;-76
2022/09/22 22:49:32;;;;;;;12.05;7.43;;;;;;;;;;10286872;28;20031;-76
2022/09/22 22:54:32;;;;;;;12.38;7.20;;;;;;;;;;10268551;28;20114;-78
2022/09/22 22:59:32;;;;;;;11.27;7.80;;;;;;;;;;10268604;28;20022;-75
2022/09/22 23:04:33;;;;;;;10.80;8.13;;;;;;;;;;10268889;28;20039;-78
2022/09/22 23:09:33;;;;;;;12.32;8.52;;;;;;;;;;10267451;28;20030;-76
2022/09/22 23:14:35;;;;;;;11.77;8.75;;;;;;;;;;10268337;28;20113;-74
2022/09/22 23:19:36;;;;;;;9.38;7.22;;;;;;;;;;10267567;28;20489;-77
2022/09/22 23:24:38;;;;;;;9.60;7.20;;;;;;;;;;10267932;28;20019;-76
2022/09/22 23:29:38;;;;;;;9.85;7.32;;;;;;;;;;10267872;28;20431;-80
2022/09/22 23:34:38;;;;;;;9.88;7.57;;;;;;;;;;10267703;28;20031;-73
2022/09/22 23:39:39;;;;;;;10.63;7.15;;;;;;;;;;10266626;28;20030;-76
2022/09/22 23:44:39;;;;;;;13.57;7.88;;;;;;;;;;10284887;28;20019;-73
2022/09/22 23:49:39;;;;;;;9.32;7.60;;;;;;;;;;10266677;28;20023;-77
2022/09/22 23:54:39;;;;;;;9.48;7.68;;;;;;;;;;10266632;28;20019;-78
2022/09/22 23:59:40;;;;;;;11.73;7.50;;;;;;;;;;10266167;28;20102;-76
